Ubon Ratchathani Airport
VTUU : now visible

Airfield :











YOU CAN JOIN US ON...

 
LOGIN :

Register | Disclaimer

   EN    FR    IT 

 









Legend :    VFR   Marginal VFR   IFR   Intensive IFR   Very Intensive IFR
Visi :
Ceiling :
>= 8 km
>= 3000ft
5 to 8 km
1000 to 3000 ft
1500m to 5 km
500 to 1000 ft
800 to 1500m
200 to 500 ft
< 800m
< 200 ft
Symbols :   Thunderstorms  Fog  Heavy snow  Heavy precipitations  Wind > 20 kt






- Airport Elevation : 406 ft
- IATA code : UBP


VTUU - Ubon Ratchathani

CURRENT METAR :
  • 271000Z VRB05KT 7000 NSC 28/24 Q1004 NOSIG

EXPIRED METARs :
  • 270900Z 33005KT 300V010 7000 FEW020 29/24 Q1003 NOSIG
  • 270800Z 33006KT 290V010 8000 FEW025 29/24 Q1004 NOSIG

TAF TAF VTUU
Valid from the 27 at 06:00 until the 28 at 06:00 UTC


270500Z 2706/2806 30005KT 9999 SCT025
TEMPO 2800/2806 VRB15KT 4000 TSRA FEW018CB BKN025
VTBB FIR / Asia



MET'MAP, your aeronautical weather chart ! - Copyright ORBIFLY December 2007 - Disclaimer

ORBIFLY MET'MAP TEAM :

Programming & Development : Alexandra Zaïnal
Original concept : Baudouin d'Aumeries
Technical & hardware support : Manuel Goepfert
Assistance : Marc-Olivier Méhu




SOURCES & CREDITS :

   NOAA       Earth
Advisory